sensor_id;sensor_type;location;lat;lon;timestamp;pressure;altitude;pressure_sealevel;temperature;humidity
59600;BME280;61855;55.030;73.326;2022-09-01T00:02:24;99208.47;;;18.33;47.40
59600;BME280;61855;55.030;73.326;2022-09-01T00:04:52;99212.56;;;18.35;47.26
59600;BME280;61855;55.030;73.326;2022-09-01T00:07:27;99213.97;;;18.38;47.63
59600;BME280;61855;55.030;73.326;2022-09-01T00:09:58;99198.97;;;18.40;47.24
59600;BME280;61855;55.030;73.326;2022-09-01T00:12:24;99200.91;;;18.40;47.57
59600;BME280;61855;55.030;73.326;2022-09-01T00:14:52;99200.91;;;18.40;48.01
59600;BME280;61855;55.030;73.326;2022-09-01T00:17:23;99176.09;;;18.24;49.64
59600;BME280;61855;55.030;73.326;2022-09-01T00:19:50;99187.94;;;18.30;49.23
59600;BME280;61855;55.030;73.326;2022-09-01T00:22:26;99192.78;;;18.28;48.75
59600;BME280;61855;55.030;73.326;2022-09-01T00:24:52;99187.59;;;18.26;49.57
59600;BME280;61855;55.030;73.326;2022-09-01T00:27:18;99187.84;;;18.25;49.50
59600;BME280;61855;55.030;73.326;2022-09-01T00:29:57;99190.06;;;18.28;50.06
59600;BME280;61855;55.030;73.326;2022-09-01T00:32:24;99189.56;;;18.31;49.96
59600;BME280;61855;55.030;73.326;2022-09-01T00:34:50;99190.22;;;18.38;49.95
59600;BME280;61855;55.030;73.326;2022-09-01T00:37:16;99191.63;;;18.41;50.07
59600;BME280;61855;55.030;73.326;2022-09-01T00:39:42;99192.13;;;18.38;49.83
59600;BME280;61855;55.030;73.326;2022-09-01T00:42:08;99202.31;;;18.42;49.58
59600;BME280;61855;55.030;73.326;2022-09-01T00:44:34;99196.94;;;18.47;49.87
59600;BME280;61855;55.030;73.326;2022-09-01T00:47:06;99181.72;;;18.51;48.99
59600;BME280;61855;55.030;73.326;2022-09-01T00:49:46;99167.84;;;18.58;49.22
59600;BME280;61855;55.030;73.326;2022-09-01T00:52:29;99176.69;;;18.65;48.75
59600;BME280;61855;55.030;73.326;2022-09-01T00:54:58;99169.63;;;18.69;48.68
59600;BME280;61855;55.030;73.326;2022-09-01T00:57:27;99174.66;;;18.77;47.61
59600;BME280;61855;55.030;73.326;2022-09-01T01:00:24;99184.56;;;18.83;47.01
59600;BME280;61855;55.030;73.326;2022-09-01T01:02:56;99172.06;;;18.87;46.69
59600;BME280;61855;55.030;73.326;2022-09-01T01:05:32;99176.75;;;18.91;46.11
59600;BME280;61855;55.030;73.326;2022-09-01T01:08:07;99188.53;;;18.97;46.08
59600;BME280;61855;55.030;73.326;2022-09-01T01:10:37;99180.41;;;19.02;45.71
59600;BME280;61855;55.030;73.326;2022-09-01T01:13:15;99154.88;;;18.91;46.47
59600;BME280;61855;55.030;73.326;2022-09-01T01:15:43;99153.09;;;18.80;46.37
59600;BME280;61855;55.030;73.326;2022-09-01T01:18:14;99150.31;;;18.75;46.75
59600;BME280;61855;55.030;73.326;2022-09-01T01:20:42;99157.94;;;18.73;47.08
59600;BME280;61855;55.030;73.326;2022-09-01T01:23:35;99159.59;;;18.74;47.51
59600;BME280;61855;55.030;73.326;2022-09-01T01:26:07;99137.47;;;18.76;47.30
59600;BME280;61855;55.030;73.326;2022-09-01T01:28:38;99132.25;;;18.74;47.54
59600;BME280;61855;55.030;73.326;2022-09-01T01:31:07;99156.09;;;18.79;47.35
59600;BME280;61855;55.030;73.326;2022-09-01T01:33:46;99166.47;;;18.77;48.33
59600;BME280;61855;55.030;73.326;2022-09-01T01:36:22;99144.47;;;18.67;47.61
59600;BME280;61855;55.030;73.326;2022-09-01T01:39:08;99177.25;;;18.67;48.22
59600;BME280;61855;55.030;73.326;2022-09-01T01:41:41;99163.84;;;18.65;48.11
59600;BME280;61855;55.030;73.326;2022-09-01T01:44:12;99162.25;;;18.69;48.14
59600;BME280;61855;55.030;73.326;2022-09-01T01:46:41;99164.78;;;18.76;48.08
59600;BME280;61855;55.030;73.326;2022-09-01T01:49:22;99158.88;;;18.84;47.96
59600;BME280;61855;55.030;73.326;2022-09-01T01:51:51;99156.06;;;19.01;48.36
59600;BME280;61855;55.030;73.326;2022-09-01T01:54:30;99159.16;;;19.09;47.56
59600;BME280;61855;55.030;73.326;2022-09-01T01:57:07;99157.31;;;19.15;48.22
59600;BME280;61855;55.030;73.326;2022-09-01T01:59:34;99158.16;;;19.15;48.31
59600;BME280;61855;55.030;73.326;2022-09-01T02:02:00;99167.22;;;19.21;48.22
59600;BME280;61855;55.030;73.326;2022-09-01T02:04:28;99168.88;;;19.22;47.91
59600;BME280;61855;55.030;73.326;2022-09-01T02:07:14;99170.31;;;19.29;48.17
59600;BME280;61855;55.030;73.326;2022-09-01T02:09:41;99172.53;;;19.32;48.50
59600;BME280;61855;55.030;73.326;2022-09-01T02:12:15;99175.28;;;19.32;47.34
59600;BME280;61855;55.030;73.326;2022-09-01T02:14:45;99174.44;;;19.32;46.86
59600;BME280;61855;55.030;73.326;2022-09-01T02:17:18;99169.63;;;19.39;46.58
59600;BME280;61855;55.030;73.326;2022-09-01T02:19:46;99174.28;;;19.38;46.74
59600;BME280;61855;55.030;73.326;2022-09-01T02:22:12;99189.13;;;19.47;47.18
59600;BME280;61855;55.030;73.326;2022-09-01T02:24:44;99178.50;;;19.51;47.33
59600;BME280;61855;55.030;73.326;2022-09-01T02:27:23;99159.81;;;19.43;46.92
59600;BME280;61855;55.030;73.326;2022-09-01T02:29:58;99183.38;;;19.44;46.84
59600;BME280;61855;55.030;73.326;2022-09-01T02:32:27;99185.00;;;19.45;47.17
59600;BME280;61855;55.030;73.326;2022-09-01T02:34:57;99184.66;;;19.36;47.04
59600;BME280;61855;55.030;73.326;2022-09-01T02:37:38;99166.47;;;19.25;47.18
59600;BME280;61855;55.030;73.326;2022-09-01T02:40:06;99177.63;;;19.24;46.95
59600;BME280;61855;55.030;73.326;2022-09-01T02:42:43;99181.66;;;19.16;47.33
59600;BME280;61855;55.030;73.326;2022-09-01T02:45:17;99188.38;;;19.04;47.74
59600;BME280;61855;55.030;73.326;2022-09-01T02:47:45;99190.56;;;19.07;48.09
59600;BME280;61855;55.030;73.326;2022-09-01T02:50:14;99183.69;;;18.99;48.16
59600;BME280;61855;55.030;73.326;2022-09-01T02:52:46;99177.72;;;19.07;47.94
59600;BME280;61855;55.030;73.326;2022-09-01T02:55:18;99190.69;;;19.17;47.50
59600;BME280;61855;55.030;73.326;2022-09-01T02:57:57;99181.97;;;19.20;47.62
59600;BME280;61855;55.030;73.326;2022-09-01T03:00:24;99180.94;;;19.26;47.28
59600;BME280;61855;55.030;73.326;2022-09-01T03:03:06;99186.03;;;19.39;47.34
59600;BME280;61855;55.030;73.326;2022-09-01T03:05:33;99189.13;;;19.47;46.83
59600;BME280;61855;55.030;73.326;2022-09-01T03:08:11;99192.22;;;19.56;47.01
59600;BME280;61855;55.030;73.326;2022-09-01T03:10:51;99189.56;;;19.61;45.98
59600;BME280;61855;55.030;73.326;2022-09-01T03:13:30;99197.88;;;19.76;46.13
59600;BME280;61855;55.030;73.326;2022-09-01T03:15:57;99200.44;;;19.88;45.75
59600;BME280;61855;55.030;73.326;2022-09-01T03:18:30;99198.56;;;19.93;45.93
59600;BME280;61855;55.030;73.326;2022-09-01T03:21:08;99209.38;;;20.10;45.63
59600;BME280;61855;55.030;73.326;2022-09-01T03:23:35;99212.78;;;20.22;45.15
59600;BME280;61855;55.030;73.326;2022-09-01T03:26:08;99215.59;;;20.32;44.96
59600;BME280;61855;55.030;73.326;2022-09-01T03:28:45;99211.00;;;20.43;44.49
59600;BME280;61855;55.030;73.326;2022-09-01T03:31:13;99212.72;;;20.54;44.49
59600;BME280;61855;55.030;73.326;2022-09-01T03:33:46;99201.19;;;20.52;45.25
59600;BME280;61855;55.030;73.326;2022-09-01T03:36:25;99227.09;;;20.76;44.56
59600;BME280;61855;55.030;73.326;2022-09-01T03:38:54;99227.69;;;20.88;44.17
59600;BME280;61855;55.030;73.326;2022-09-01T03:41:25;99219.50;;;20.98;43.85
59600;BME280;61855;55.030;73.326;2022-09-01T03:43:54;99221.50;;;21.08;43.54
59600;BME280;61855;55.030;73.326;2022-09-01T03:46:34;99228.13;;;21.22;43.60
59600;BME280;61855;55.030;73.326;2022-09-01T03:49:01;99238.31;;;21.31;43.60
59600;BME280;61855;55.030;73.326;2022-09-01T03:51:37;99230.09;;;21.36;43.43
59600;BME280;61855;55.030;73.326;2022-09-01T03:54:13;99221.59;;;21.38;43.30
59600;BME280;61855;55.030;73.326;2022-09-01T03:56:40;99254.31;;;21.65;43.51
59600;BME280;61855;55.030;73.326;2022-09-01T03:59:08;99249.69;;;21.70;42.87
59600;BME280;61855;55.030;73.326;2022-09-01T04:01:42;99246.91;;;21.80;43.15
59600;BME280;61855;55.030;73.326;2022-09-01T04:04:19;99262.91;;;21.93;42.58
59600;BME280;61855;55.030;73.326;2022-09-01T04:06:46;99250.28;;;22.02;42.52
59600;BME280;61855;55.030;73.326;2022-09-01T04:09:22;99259.34;;;22.13;42.58
59600;BME280;61855;55.030;73.326;2022-09-01T04:11:48;99265.13;;;22.27;42.63
59600;BME280;61855;55.030;73.326;2022-09-01T04:14:19;99271.69;;;22.36;42.16
59600;BME280;61855;55.030;73.326;2022-09-01T04:16:47;99266.19;;;22.46;42.28
59600;BME280;61855;55.030;73.326;2022-09-01T04:19:36;99274.16;;;22.52;42.36
59600;BME280;61855;55.030;73.326;2022-09-01T04:22:05;99278.56;;;22.63;42.02
59600;BME280;61855;55.030;73.326;2022-09-01T04:24:38;99278.56;;;22.73;42.03
59600;BME280;61855;55.030;73.326;2022-09-01T04:27:13;99282.13;;;22.84;41.80
59600;BME280;61855;55.030;73.326;2022-09-01T04:29:40;99274.41;;;22.91;41.90
59600;BME280;61855;55.030;73.326;2022-09-01T04:32:11;99281.22;;;23.04;41.90
59600;BME280;61855;55.030;73.326;2022-09-01T04:34:45;99283.94;;;23.14;41.93
59600;BME280;61855;55.030;73.326;2022-09-01T04:37:17;99290.25;;;23.24;41.93
59600;BME280;61855;55.030;73.326;2022-09-01T04:39:52;99293.75;;;23.40;41.81
59600;BME280;61855;55.030;73.326;2022-09-01T04:42:21;99289.59;;;23.47;41.67
59600;BME280;61855;55.030;73.326;2022-09-01T04:44:53;99298.06;;;23.61;41.38
59600;BME280;61855;55.030;73.326;2022-09-01T04:47:24;99293.88;;;23.74;41.02
59600;BME280;61855;55.030;73.326;2022-09-01T04:49:58;99298.72;;;23.87;41.38
59600;BME280;61855;55.030;73.326;2022-09-01T04:52:36;99292.34;;;23.96;40.98
59600;BME280;61855;55.030;73.326;2022-09-01T04:55:12;99304.66;;;24.14;41.15
59600;BME280;61855;55.030;73.326;2022-09-01T04:57:47;99303.72;;;24.29;40.79
59600;BME280;61855;55.030;73.326;2022-09-01T05:00:26;99298.66;;;24.41;40.80
59600;BME280;61855;55.030;73.326;2022-09-01T05:03:01;99300.75;;;24.49;40.39
59600;BME280;61855;55.030;73.326;2022-09-01T05:06:14;99303.69;;;24.62;40.62
59600;BME280;61855;55.030;73.326;2022-09-01T05:08:46;99308.91;;;24.64;39.72
59600;BME280;61855;55.030;73.326;2022-09-01T05:11:34;99299.19;;;24.76;39.86
59600;BME280;61855;55.030;73.326;2022-09-01T05:14:19;99303.47;;;24.87;39.55
59600;BME280;61855;55.030;73.326;2022-09-01T05:16:56;99295.91;;;24.98;39.83
59600;BME280;61855;55.030;73.326;2022-09-01T05:19:25;99303.53;;;25.06;39.61
59600;BME280;61855;55.030;73.326;2022-09-01T05:21:56;99308.94;;;25.16;39.87
59600;BME280;61855;55.030;73.326;2022-09-01T05:24:24;99324.31;;;25.22;40.07
59600;BME280;61855;55.030;73.326;2022-09-01T05:27:07;99299.19;;;25.24;39.45
59600;BME280;61855;55.030;73.326;2022-09-01T05:29:41;99291.59;;;25.34;39.83
59600;BME280;61855;55.030;73.326;2022-09-01T05:32:09;99279.97;;;25.37;39.77
59600;BME280;61855;55.030;73.326;2022-09-01T05:34:47;99301.97;;;25.47;39.64
59600;BME280;61855;55.030;73.326;2022-09-01T05:37:16;99305.72;;;25.57;40.14
59600;BME280;61855;55.030;73.326;2022-09-01T05:39:43;99300.44;;;25.60;39.53
59600;BME280;61855;55.030;73.326;2022-09-01T05:42:12;99303.94;;;25.66;39.60
59600;BME280;61855;55.030;73.326;2022-09-01T05:44:45;99304.16;;;25.69;39.50
59600;BME280;61855;55.030;73.326;2022-09-01T05:47:15;99306.63;;;25.71;39.50
59600;BME280;61855;55.030;73.326;2022-09-01T05:49:51;99318.13;;;25.78;39.71
59600;BME280;61855;55.030;73.326;2022-09-01T05:52:23;99351.75;;;25.85;39.51
59600;BME280;61855;55.030;73.326;2022-09-01T05:54:52;99306.34;;;25.91;39.72
59600;BME280;61855;55.030;73.326;2022-09-01T05:57:21;99300.97;;;25.99;39.96
59600;BME280;61855;55.030;73.326;2022-09-01T05:59:58;99307.31;;;26.00;39.80
59600;BME280;61855;55.030;73.326;2022-09-01T06:02:28;99307.84;;;26.02;39.92
59600;BME280;61855;55.030;73.326;2022-09-01T06:05:07;99298.59;;;26.11;39.68
59600;BME280;61855;55.030;73.326;2022-09-01T06:07:40;99322.06;;;26.14;39.33
59600;BME280;61855;55.030;73.326;2022-09-01T06:10:09;99304.25;;;26.20;39.95
59600;BME280;61855;55.030;73.326;2022-09-01T06:12:47;99313.72;;;26.33;40.29
59600;BME280;61855;55.030;73.326;2022-09-01T06:15:16;99305.94;;;26.35;40.05
59600;BME280;61855;55.030;73.326;2022-09-01T06:17:56;99314.91;;;26.45;39.89
59600;BME280;61855;55.030;73.326;2022-09-01T06:20:24;99315.94;;;26.49;39.73
59600;BME280;61855;55.030;73.326;2022-09-01T06:22:57;99318.94;;;26.53;39.50
59600;BME280;61855;55.030;73.326;2022-09-01T06:25:23;99323.34;;;26.54;39.68
59600;BME280;61855;55.030;73.326;2022-09-01T06:28:01;99321.72;;;26.53;39.08
59600;BME280;61855;55.030;73.326;2022-09-01T06:30:31;99316.53;;;26.46;39.46
59600;BME280;61855;55.030;73.326;2022-09-01T06:33:12;99317.28;;;26.52;39.36
59600;BME280;61855;55.030;73.326;2022-09-01T06:35:53;99309.31;;;26.50;39.61
59600;BME280;61855;55.030;73.326;2022-09-01T06:38:26;99315.78;;;26.59;39.30
59600;BME280;61855;55.030;73.326;2022-09-01T06:41:04;99305.22;;;26.61;39.32
59600;BME280;61855;55.030;73.326;2022-09-01T06:43:39;99313.44;;;26.66;39.30
59600;BME280;61855;55.030;73.326;2022-09-01T06:46:17;99325.63;;;26.65;38.54
59600;BME280;61855;55.030;73.326;2022-09-01T06:48:55;99325.53;;;26.70;38.25
59600;BME280;61855;55.030;73.326;2022-09-01T06:51:25;99348.00;;;26.69;37.50
59600;BME280;61855;55.030;73.326;2022-09-01T06:54:05;99315.50;;;26.74;37.16
59600;BME280;61855;55.030;73.326;2022-09-01T06:56:33;99333.19;;;26.78;37.39
59600;BME280;61855;55.030;73.326;2022-09-01T06:59:00;99337.81;;;26.83;37.09
59600;BME280;61855;55.030;73.326;2022-09-01T07:01:33;99340.56;;;26.83;37.33
59600;BME280;61855;55.030;73.326;2022-09-01T07:04:01;99364.25;;;26.89;37.55
59600;BME280;61855;55.030;73.326;2022-09-01T07:06:58;99324.16;;;26.86;37.25
59600;BME280;61855;55.030;73.326;2022-09-01T07:09:47;99321.13;;;26.88;37.29
59600;BME280;61855;55.030;73.326;2022-09-01T07:12:22;99334.31;;;26.91;37.13
59600;BME280;61855;55.030;73.326;2022-09-01T07:14:50;99342.84;;;26.95;37.62
59600;BME280;61855;55.030;73.326;2022-09-01T07:17:23;99328.41;;;26.98;37.47
59600;BME280;61855;55.030;73.326;2022-09-01T07:19:50;99325.00;;;27.01;37.23
59600;BME280;61855;55.030;73.326;2022-09-01T07:22:26;99341.44;;;27.11;37.11
59600;BME280;61855;55.030;73.326;2022-09-01T07:24:55;99385.75;;;27.11;36.85
59600;BME280;61855;55.030;73.326;2022-09-01T07:27:47;99364.19;;;27.08;37.21
59600;BME280;61855;55.030;73.326;2022-09-01T07:30:19;99345.13;;;27.20;37.64
59600;BME280;61855;55.030;73.326;2022-09-01T07:32:47;99343.31;;;27.29;37.59
59600;BME280;61855;55.030;73.326;2022-09-01T07:35:19;99339.22;;;27.26;37.77
59600;BME280;61855;55.030;73.326;2022-09-01T07:37:51;99334.38;;;27.32;37.14
59600;BME280;61855;55.030;73.326;2022-09-01T07:40:19;99341.88;;;27.31;37.29
59600;BME280;61855;55.030;73.326;2022-09-01T07:42:55;99356.06;;;27.43;37.08
59600;BME280;61855;55.030;73.326;2022-09-01T07:45:55;99353.41;;;27.52;37.15
59600;BME280;61855;55.030;73.326;2022-09-01T07:48:30;99355.84;;;27.67;37.19
59600;BME280;61855;55.030;73.326;2022-09-01T07:51:00;99350.28;;;27.67;37.07
59600;BME280;61855;55.030;73.326;2022-09-01T07:53:33;99361.81;;;27.61;37.16
59600;BME280;61855;55.030;73.326;2022-09-01T07:56:10;99370.13;;;27.61;37.63
59600;BME280;61855;55.030;73.326;2022-09-01T07:58:42;99388.50;;;27.57;36.52
59600;BME280;61855;55.030;73.326;2022-09-01T08:01:13;99384.91;;;27.56;35.28
59600;BME280;61855;55.030;73.326;2022-09-01T08:03:42;99380.78;;;27.40;35.04
59600;BME280;61855;55.030;73.326;2022-09-01T08:06:23;99382.81;;;27.34;35.83
59600;BME280;61855;55.030;73.326;2022-09-01T08:08:52;99382.41;;;27.41;35.03
59600;BME280;61855;55.030;73.326;2022-09-01T08:11:24;99383.56;;;27.40;35.21
59600;BME280;61855;55.030;73.326;2022-09-01T08:13:53;99398.75;;;27.42;35.51
59600;BME280;61855;55.030;73.326;2022-09-01T08:16:20;99367.09;;;27.30;35.20
59600;BME280;61855;55.030;73.326;2022-09-01T08:18:49;99395.63;;;27.30;34.64
59600;BME280;61855;55.030;73.326;2022-09-01T08:21:33;99382.59;;;27.31;34.85
59600;BME280;61855;55.030;73.326;2022-09-01T08:24:02;99399.59;;;27.43;35.26
59600;BME280;61855;55.030;73.326;2022-09-01T08:26:43;99397.50;;;27.48;34.54
59600;BME280;61855;55.030;73.326;2022-09-01T08:29:09;99410.75;;;27.38;34.42
59600;BME280;61855;55.030;73.326;2022-09-01T08:31:40;99441.44;;;27.41;34.92
59600;BME280;61855;55.030;73.326;2022-09-01T08:34:13;99404.91;;;27.39;34.43
59600;BME280;61855;55.030;73.326;2022-09-01T08:36:43;99407.06;;;27.42;34.72
59600;BME280;61855;55.030;73.326;2022-09-01T08:39:09;99419.25;;;27.41;35.03
59600;BME280;61855;55.030;73.326;2022-09-01T08:44:31;99421.66;;;27.48;35.50
59600;BME280;61855;55.030;73.326;2022-09-01T08:47:06;99399.59;;;27.57;35.77
59600;BME280;61855;55.030;73.326;2022-09-01T08:49:36;99467.50;;;27.40;36.12
59600;BME280;61855;55.030;73.326;2022-09-01T08:54:48;99421.31;;;27.36;36.14
59600;BME280;61855;55.030;73.326;2022-09-01T08:57:20;99422.31;;;27.26;35.70
59600;BME280;61855;55.030;73.326;2022-09-01T09:00:31;99406.59;;;27.22;36.03
59600;BME280;61855;55.030;73.326;2022-09-01T09:06:22;99428.81;;;27.49;36.95
59600;BME280;61855;55.030;73.326;2022-09-01T09:09:07;99467.72;;;27.44;37.07
59600;BME280;61855;55.030;73.326;2022-09-01T09:14:27;99461.19;;;27.35;37.81
59600;BME280;61855;55.030;73.326;2022-09-01T09:16:58;99447.84;;;27.37;37.25
59600;BME280;61855;55.030;73.326;2022-09-01T09:19:32;99457.22;;;27.41;36.82
59600;BME280;61855;55.030;73.326;2022-09-01T09:22:01;99453.81;;;27.30;36.85
59600;BME280;61855;55.030;73.326;2022-09-01T09:24:31;99458.44;;;27.35;36.83
59600;BME280;61855;55.030;73.326;2022-09-01T09:27:28;99462.56;;;27.37;37.21
59600;BME280;61855;55.030;73.326;2022-09-01T09:29:59;99451.50;;;27.51;37.41
59600;BME280;61855;55.030;73.326;2022-09-01T09:33:01;99483.50;;;27.43;37.38
59600;BME280;61855;55.030;73.326;2022-09-01T09:35:36;99456.78;;;27.34;37.79
59600;BME280;61855;55.030;73.326;2022-09-01T09:41:28;99483.34;;;27.21;37.54
59600;BME280;61855;55.030;73.326;2022-09-01T09:43:57;99485.78;;;27.23;37.58
59600;BME280;61855;55.030;73.326;2022-09-01T09:51:56;99480.03;;;27.38;37.22
59600;BME280;61855;55.030;73.326;2022-09-01T09:54:25;99496.56;;;27.43;38.18
59600;BME280;61855;55.030;73.326;2022-09-01T10:02:31;99489.00;;;27.30;38.65
59600;BME280;61855;55.030;73.326;2022-09-01T10:07:52;99503.66;;;27.30;39.76
59600;BME280;61855;55.030;73.326;2022-09-01T10:13:11;99499.22;;;27.16;39.29
59600;BME280;61855;55.030;73.326;2022-09-01T10:15:37;99502.72;;;27.21;39.39
59600;BME280;61855;55.030;73.326;2022-09-01T10:18:08;99513.28;;;27.19;39.73
59600;BME280;61855;55.030;73.326;2022-09-01T10:20:53;99497.38;;;27.25;39.97
59600;BME280;61855;55.030;73.326;2022-09-01T10:23:21;99521.72;;;27.28;40.30
59600;BME280;61855;55.030;73.326;2022-09-01T10:25:50;99527.84;;;27.25;40.09
59600;BME280;61855;55.030;73.326;2022-09-01T10:28:26;99538.41;;;27.23;39.97
59600;BME280;61855;55.030;73.326;2022-09-01T10:30:56;99523.75;;;27.22;39.96
59600;BME280;61855;55.030;73.326;2022-09-01T10:33:24;99534.81;;;27.22;40.06
59600;BME280;61855;55.030;73.326;2022-09-01T10:35:52;99518.72;;;27.24;40.16
59600;BME280;61855;55.030;73.326;2022-09-01T10:38:23;99531.44;;;27.44;40.62
59600;BME280;61855;55.030;73.326;2022-09-01T10:40:52;99537.22;;;27.29;40.63
59600;BME280;61855;55.030;73.326;2022-09-01T10:43:46;99548.47;;;27.19;40.74
59600;BME280;61855;55.030;73.326;2022-09-01T10:48:59;99530.50;;;27.16;40.69
59600;BME280;61855;55.030;73.326;2022-09-01T10:53:53;99537.38;;;27.19;39.99
59600;BME280;61855;55.030;73.326;2022-09-01T10:56:46;99545.63;;;27.24;40.15
59600;BME280;61855;55.030;73.326;2022-09-01T11:04:20;99580.63;;;27.33;39.37
59600;BME280;61855;55.030;73.326;2022-09-01T11:06:59;99557.72;;;27.79;38.87
59600;BME280;61855;55.030;73.326;2022-09-01T11:09:38;99536.59;;;28.64;37.15
59600;BME280;61855;55.030;73.326;2022-09-01T11:15:01;99572.00;;;30.05;35.18
59600;BME280;61855;55.030;73.326;2022-09-01T11:17:38;99572.22;;;30.17;35.27
59600;BME280;61855;55.030;73.326;2022-09-01T11:20:27;99568.59;;;30.48;35.01
59600;BME280;61855;55.030;73.326;2022-09-01T11:25:54;99576.88;;;30.87;34.91
59600;BME280;61855;55.030;73.326;2022-09-01T11:28:37;99592.31;;;31.10;34.67
59600;BME280;61855;55.030;73.326;2022-09-01T11:31:19;99584.28;;;31.00;34.97
59600;BME280;61855;55.030;73.326;2022-09-01T11:34:02;99587.56;;;31.36;34.25
59600;BME280;61855;55.030;73.326;2022-09-01T11:47:44;99606.25;;;31.79;34.46
59600;BME280;61855;55.030;73.326;2022-09-01T11:50:29;99619.06;;;31.20;35.35
59600;BME280;61855;55.030;73.326;2022-09-01T11:53:12;99625.28;;;31.00;36.23
59600;BME280;61855;55.030;73.326;2022-09-01T11:55:40;99621.88;;;31.45;35.20
59600;BME280;61855;55.030;73.326;2022-09-01T11:58:29;99634.34;;;31.48;35.36
59600;BME280;61855;55.030;73.326;2022-09-01T12:01:12;99638.41;;;31.16;35.76
59600;BME280;61855;55.030;73.326;2022-09-01T12:03:50;99659.69;;;31.12;36.04
59600;BME280;61855;55.030;73.326;2022-09-01T12:06:25;99649.59;;;30.68;36.27
59600;BME280;61855;55.030;73.326;2022-09-01T12:09:01;99646.81;;;30.68;36.40
59600;BME280;61855;55.030;73.326;2022-09-01T12:11:32;99652.38;;;30.68;36.33
59600;BME280;61855;55.030;73.326;2022-09-01T12:14:01;99647.78;;;30.72;36.32
59600;BME280;61855;55.030;73.326;2022-09-01T12:16:35;99671.59;;;30.48;36.49
59600;BME280;61855;55.030;73.326;2022-09-01T12:19:03;99667.47;;;30.14;37.29
59600;BME280;61855;55.030;73.326;2022-09-01T12:21:38;99674.13;;;30.05;37.48
59600;BME280;61855;55.030;73.326;2022-09-01T12:24:22;99686.56;;;29.27;38.62
59600;BME280;61855;55.030;73.326;2022-09-01T12:26:53;99670.41;;;29.16;38.97
59600;BME280;61855;55.030;73.326;2022-09-01T12:29:22;99677.31;;;28.91;39.33
59600;BME280;61855;55.030;73.326;2022-09-01T12:31:50;99680.91;;;28.37;40.75
59600;BME280;61855;55.030;73.326;2022-09-01T12:34:36;99695.94;;;28.04;41.14
59600;BME280;61855;55.030;73.326;2022-09-01T12:37:19;99689.69;;;27.93;41.58
59600;BME280;61855;55.030;73.326;2022-09-01T12:39:47;99710.81;;;28.08;41.10
59600;BME280;61855;55.030;73.326;2022-09-01T12:44:55;99703.91;;;27.36;42.73
59600;BME280;61855;55.030;73.326;2022-09-01T12:50:03;99711.16;;;26.90;43.81
59600;BME280;61855;55.030;73.326;2022-09-01T12:52:48;99756.16;;;26.76;43.95
59600;BME280;61855;55.030;73.326;2022-09-01T12:55:21;99729.22;;;26.30;44.56
59600;BME280;61855;55.030;73.326;2022-09-01T12:57:55;99724.72;;;26.05;45.05
59600;BME280;61855;55.030;73.326;2022-09-01T13:03:13;99739.22;;;25.53;45.68
59600;BME280;61855;55.030;73.326;2022-09-01T13:05:44;99737.38;;;25.28;45.50
59600;BME280;61855;55.030;73.326;2022-09-01T13:08:20;99753.28;;;25.51;45.53
59600;BME280;61855;55.030;73.326;2022-09-01T13:11:04;99741.72;;;25.49;45.42
59600;BME280;61855;55.030;73.326;2022-09-01T13:13:31;99756.78;;;25.13;46.38
59600;BME280;61855;55.030;73.326;2022-09-01T13:16:01;99759.13;;;24.81;46.85
59600;BME280;61855;55.030;73.326;2022-09-01T13:18:29;99768.25;;;24.51;47.60
59600;BME280;61855;55.030;73.326;2022-09-01T13:20:56;99794.44;;;24.03;48.53
59600;BME280;61855;55.030;73.326;2022-09-01T13:23:23;99775.94;;;23.74;48.78
59600;BME280;61855;55.030;73.326;2022-09-01T13:25:49;99782.53;;;23.52;49.27
59600;BME280;61855;55.030;73.326;2022-09-01T13:28:26;99772.19;;;23.13;49.99
59600;BME280;61855;55.030;73.326;2022-09-01T13:31:03;99796.28;;;22.90;50.91
59600;BME280;61855;55.030;73.326;2022-09-01T13:33:33;99790.66;;;22.70;51.29
59600;BME280;61855;55.030;73.326;2022-09-01T13:36:00;99799.19;;;22.69;51.27
59600;BME280;61855;55.030;73.326;2022-09-01T13:38:27;99791.78;;;22.38;52.16
59600;BME280;61855;55.030;73.326;2022-09-01T13:40:53;99801.56;;;22.23;52.52
59600;BME280;61855;55.030;73.326;2022-09-01T13:43:20;99793.41;;;22.02;53.23
59600;BME280;61855;55.030;73.326;2022-09-01T13:45:47;99799.59;;;21.87;53.79
59600;BME280;61855;55.030;73.326;2022-09-01T13:48:14;99809.34;;;21.78;53.83
59600;BME280;61855;55.030;73.326;2022-09-01T13:50:49;99804.22;;;21.60;54.65
59600;BME280;61855;55.030;73.326;2022-09-01T13:53:21;99824.09;;;21.45;55.15
59600;BME280;61855;55.030;73.326;2022-09-01T13:55:47;99819.06;;;21.37;55.30
59600;BME280;61855;55.030;73.326;2022-09-01T13:58:14;99821.72;;;21.27;55.76
59600;BME280;61855;55.030;73.326;2022-09-01T14:00:44;99809.38;;;21.08;55.94
59600;BME280;61855;55.030;73.326;2022-09-01T14:03:16;99834.22;;;21.02;56.69
59600;BME280;61855;55.030;73.326;2022-09-01T14:05:45;99839.38;;;20.98;56.48
59600;BME280;61855;55.030;73.326;2022-09-01T14:08:14;99842.06;;;20.93;56.76
59600;BME280;61855;55.030;73.326;2022-09-01T14:10:44;99847.16;;;20.84;57.21
59600;BME280;61855;55.030;73.326;2022-09-01T14:13:23;99846.81;;;20.81;57.14
59600;BME280;61855;55.030;73.326;2022-09-01T14:15:49;99846.34;;;20.67;57.67
59600;BME280;61855;55.030;73.326;2022-09-01T14:18:19;99851.56;;;20.69;58.19
59600;BME280;61855;55.030;73.326;2022-09-01T14:20:48;99853.16;;;20.65;58.35
59600;BME280;61855;55.030;73.326;2022-09-01T14:23:17;99853.56;;;20.57;58.58
59600;BME280;61855;55.030;73.326;2022-09-01T14:25:46;99860.66;;;20.53;58.83
59600;BME280;61855;55.030;73.326;2022-09-01T14:28:23;99870.94;;;20.46;58.88
59600;BME280;61855;55.030;73.326;2022-09-01T14:30:50;99862.38;;;20.42;59.13